createdAt,value
2018-09-03T00:02:15.654Z,100240.69
2018-09-03T00:04:44.117Z,100237.23
2018-09-03T00:07:12.618Z,100226.25
2018-09-03T00:09:42.528Z,100219.20
2018-09-03T00:12:12.108Z,100217.59
2018-09-03T00:14:40.929Z,100216.06
2018-09-03T00:17:09.820Z,100205.23
2018-09-03T00:19:38.451Z,100206.77
2018-09-03T00:22:07.117Z,100205.58
2018-09-03T00:24:35.729Z,100208.78
2018-09-03T00:27:04.310Z,100200.12
2018-09-03T00:29:32.839Z,100193.66
2018-09-03T00:32:06.772Z,100178.78
2018-09-03T00:34:40.430Z,100176.32
2018-09-03T00:37:14.162Z,100176.03
2018-09-03T00:39:47.933Z,100178.05
2018-09-03T00:42:21.633Z,100182.66
2018-09-03T00:44:55.339Z,100179.40
2018-09-03T00:47:23.975Z,100181.47
2018-09-03T00:49:52.498Z,100182.05
2018-09-03T00:52:21.035Z,100170.73
2018-09-03T00:54:49.557Z,100170.92
2018-09-03T00:57:18.086Z,100169.34
2018-09-03T00:59:46.717Z,100166.81
2018-09-03T01:02:15.281Z,100167.32
2018-09-03T01:04:43.809Z,100170.52
2018-09-03T01:07:12.410Z,100159.14
2018-09-03T01:09:40.919Z,100165.97
2018-09-03T01:12:09.437Z,100168.77
2018-09-03T01:14:37.920Z,100169.35
2018-09-03T01:17:06.466Z,100175.65
2018-09-03T01:19:34.945Z,100182.24
2018-09-03T01:22:03.527Z,100178.61
2018-09-03T01:24:32.026Z,100178.47
2018-09-03T01:27:00.491Z,100178.77
2018-09-03T01:29:29.000Z,100175.97
2018-09-03T01:31:57.627Z,100179.95
2018-09-03T01:34:27.217Z,100182.22
2018-09-03T01:36:55.702Z,100172.83
2018-09-03T01:39:24.221Z,100174.10
2018-09-03T01:41:52.708Z,100176.71
2018-09-03T01:44:21.191Z,100170.41
2018-09-03T01:46:49.741Z,100169.88
2018-09-03T01:49:18.223Z,100160.17
2018-09-03T01:51:46.671Z,100166.53
2018-09-03T01:54:15.182Z,100171.58
2018-09-03T01:56:43.734Z,100182.45
2018-09-03T01:59:12.301Z,100186.09
2018-09-03T02:01:40.818Z,100183.52
2018-09-03T02:04:09.437Z,100184.02
2018-09-03T02:06:37.961Z,100181.45
2018-09-03T02:09:10.199Z,100170.52
2018-09-03T02:11:38.999Z,100177.70
2018-09-03T02:14:07.768Z,100189.84
2018-09-03T02:16:37.232Z,100186.44
2018-09-03T02:19:06.048Z,100193.91
2018-09-03T02:21:34.550Z,100200.47
2018-09-03T02:24:03.086Z,100214.55
2018-09-03T02:26:31.831Z,100212.32
2018-09-03T02:29:00.470Z,100202.49
2018-09-03T02:31:28.991Z,100187.75
2018-09-03T02:33:57.581Z,99956.19
2018-09-03T02:36:26.139Z,100192.29
2018-09-03T02:38:54.666Z,100182.85
2018-09-03T02:41:23.148Z,100173.84
2018-09-03T02:43:51.668Z,100170.66
2018-09-03T02:46:20.213Z,100175.83
2018-09-03T02:48:48.768Z,100171.79
2018-09-03T02:51:17.213Z,100165.55
2018-09-03T02:53:45.768Z,100174.05
2018-09-03T02:56:14.354Z,100171.98
2018-09-03T02:58:42.998Z,100169.96
2018-09-03T03:01:11.566Z,100169.70
2018-09-03T03:03:40.178Z,100171.75
2018-09-03T03:06:08.730Z,100165.39
2018-09-03T03:08:37.291Z,100154.16
2018-09-03T03:11:06.386Z,100156.15
2018-09-03T03:13:34.881Z,100155.55
2018-09-03T03:16:03.399Z,100148.70
2018-09-03T03:18:31.926Z,100149.81
2018-09-03T03:21:00.502Z,100154.82
2018-09-03T03:23:29.029Z,100146.58
2018-09-03T03:25:57.552Z,100142.70
2018-09-03T03:28:26.187Z,100147.29
2018-09-03T03:30:54.717Z,100143.41
2018-09-03T03:33:23.233Z,100128.00
2018-09-03T03:35:51.814Z,100127.25
2018-09-03T03:38:20.309Z,100134.47
2018-09-03T03:40:48.915Z,100138.13
2018-09-03T03:43:17.595Z,100137.70
2018-09-03T03:45:46.072Z,100136.09
2018-09-03T03:48:14.538Z,100133.89
2018-09-03T03:50:43.103Z,100130.52
2018-09-03T03:53:11.629Z,100130.61
2018-09-03T03:55:40.251Z,100136.31
2018-09-03T03:58:08.807Z,100129.19
2018-09-03T04:00:37.380Z,100125.93
2018-09-03T04:03:05.887Z,100125.83
2018-09-03T04:05:34.489Z,100122.92
2018-09-03T04:08:07.013Z,100120.48
2018-09-03T04:10:35.639Z,100117.20
2018-09-03T04:13:04.960Z,100117.47
2018-09-03T04:15:34.037Z,100117.38
2018-09-03T04:18:03.309Z,100119.90
2018-09-03T04:20:31.910Z,100114.05
2018-09-03T04:23:00.459Z,100116.66
2018-09-03T04:25:28.890Z,100109.62
2018-09-03T04:27:57.430Z,100097.33
2018-09-03T04:30:25.950Z,100099.98
2018-09-03T04:32:55.023Z,100099.94
2018-09-03T04:35:23.598Z,100102.06
2018-09-03T04:37:52.103Z,100108.16
2018-09-03T04:40:20.709Z,100101.42
2018-09-03T04:42:49.215Z,100103.02
2018-09-03T04:45:17.857Z,100105.63
2018-09-03T04:47:46.488Z,100105.09
2018-09-03T04:50:15.516Z,100101.95
2018-09-03T04:52:44.278Z,100106.41
2018-09-03T04:55:12.862Z,100102.83
2018-09-03T04:57:41.353Z,100098.71
2018-09-03T05:00:10.004Z,100106.66
2018-09-03T05:02:38.630Z,100107.45
2018-09-03T05:05:07.160Z,100106.92
2018-09-03T05:07:35.700Z,100101.50
2018-09-03T05:10:04.338Z,100102.70
2018-09-03T05:12:32.931Z,100100.78
2018-09-03T05:15:01.523Z,100103.30
2018-09-03T05:17:30.092Z,100112.47
2018-09-03T05:19:58.702Z,100105.77
2018-09-03T05:22:27.494Z,100104.78
2018-09-03T05:24:55.972Z,100103.27
2018-09-03T05:27:24.606Z,100093.03
2018-09-03T05:29:53.114Z,100082.73
2018-09-03T05:32:21.734Z,100090.03
2018-09-03T05:34:50.352Z,100088.99
2018-09-03T05:37:18.963Z,100098.55
2018-09-03T05:39:47.581Z,100100.76
2018-09-03T05:42:16.178Z,100098.89
2018-09-03T05:44:44.730Z,100103.12
2018-09-03T05:47:13.308Z,100102.68
2018-09-03T05:49:41.831Z,100097.77
2018-09-03T05:52:10.411Z,100104.27
2018-09-03T05:54:39.231Z,100111.25
2018-09-03T05:57:07.783Z,100104.94
2018-09-03T05:59:36.320Z,100100.41
2018-09-03T06:02:04.894Z,100101.15
2018-09-03T06:04:33.451Z,100087.41
2018-09-03T06:07:02.019Z,100090.52
2018-09-03T06:09:30.763Z,100083.72
2018-09-03T06:11:59.240Z,100078.29
2018-09-03T06:14:27.744Z,100078.59
2018-09-03T06:16:56.278Z,100083.31
2018-09-03T06:19:24.854Z,100087.67
2018-09-03T06:21:53.407Z,100088.55
2018-09-03T06:24:22.955Z,100087.61
2018-09-03T06:26:51.496Z,100092.45
2018-09-03T06:29:20.256Z,100087.61
2018-09-03T06:31:48.884Z,100092.05
2018-09-03T06:34:17.420Z,100089.00
2018-09-03T06:36:45.978Z,100094.37
2018-09-03T06:39:14.510Z,100091.20
2018-09-03T06:41:43.027Z,100088.01
2018-09-03T06:44:11.659Z,100089.13
2018-09-03T06:46:40.223Z,100089.47
2018-09-03T06:49:08.811Z,100091.05
2018-09-03T06:51:37.506Z,100115.72
2018-09-03T06:54:06.232Z,100084.91
2018-09-03T06:56:34.979Z,100080.65
2018-09-03T06:59:03.770Z,100076.36
2018-09-03T07:01:33.315Z,100077.66
2018-09-03T07:04:02.108Z,100070.44
2018-09-03T07:06:30.873Z,100068.58
2018-09-03T07:08:59.739Z,100090.36
2018-09-03T07:11:28.372Z,100072.83
2018-09-03T07:13:56.943Z,100069.28
2018-09-03T07:16:25.663Z,100073.28
2018-09-03T07:18:54.282Z,100074.08
2018-09-03T07:21:22.895Z,100072.25
2018-09-03T07:23:51.478Z,100083.20
2018-09-03T07:26:20.158Z,100070.66
2018-09-03T07:28:48.797Z,100068.73
2018-09-03T07:31:17.486Z,100084.06
2018-09-03T07:33:46.062Z,100087.78
2018-09-03T07:36:14.579Z,100079.89
2018-09-03T07:38:43.147Z,100080.29
2018-09-03T07:41:12.076Z,100083.55
2018-09-03T07:43:40.789Z,100073.91
2018-09-03T07:46:09.459Z,100085.97
2018-09-03T07:48:38.151Z,100082.49
2018-09-03T07:51:06.803Z,100077.50
2018-09-03T07:53:35.407Z,100085.83
2018-09-03T07:56:03.931Z,100085.22
2018-09-03T07:58:32.570Z,100086.45
2018-09-03T08:01:01.416Z,100086.61
2018-09-03T08:03:29.913Z,100086.76
2018-09-03T08:05:58.467Z,100082.05
2018-09-03T08:08:27.017Z,100085.30
2018-09-03T08:10:55.490Z,100082.52
2018-09-03T08:13:29.486Z,100078.62
2018-09-03T08:15:58.121Z,100073.91
2018-09-03T08:18:26.680Z,99869.03
2018-09-03T08:20:55.335Z,100069.63
2018-09-03T08:23:24.007Z,100076.67
2018-09-03T08:25:52.535Z,100072.03
2018-09-03T08:28:21.069Z,100072.66
2018-09-03T08:30:49.690Z,100074.72
2018-09-03T08:33:18.303Z,100077.37
2018-09-03T08:35:46.838Z,100075.59
2018-09-03T08:38:15.463Z,100076.78
2018-09-03T08:40:44.106Z,100073.06
2018-09-03T08:43:12.678Z,100072.58
2018-09-03T08:45:41.395Z,100074.30
2018-09-03T08:48:10.189Z,100071.42
2018-09-03T08:50:39.083Z,100074.97
2018-09-03T08:53:07.681Z,100073.15
2018-09-03T08:55:36.400Z,100073.15
2018-09-03T08:58:05.073Z,100075.14
2018-09-03T09:00:33.718Z,100079.38
2018-09-03T09:03:02.425Z,100076.50
2018-09-03T09:05:30.976Z,100080.43
2018-09-03T09:07:59.649Z,100078.16
2018-09-03T09:10:28.259Z,100082.00
2018-09-03T09:12:56.875Z,100083.20
2018-09-03T09:15:25.523Z,100082.05
2018-09-03T09:17:54.066Z,100083.62
2018-09-03T09:20:22.717Z,100078.69
2018-09-03T09:22:51.327Z,100078.78
2018-09-03T09:25:19.922Z,100074.47
2018-09-03T09:27:48.511Z,100080.48
2018-09-03T09:30:17.187Z,100080.44
2018-09-03T09:32:45.820Z,100069.55
2018-09-03T09:35:14.442Z,100063.41
2018-09-03T09:37:43.185Z,100062.94
2018-09-03T09:40:11.835Z,100064.52
2018-09-03T09:42:41.386Z,100056.23
2018-09-03T09:45:10.828Z,100055.42
2018-09-03T09:47:39.409Z,100060.24
2018-09-03T09:50:08.121Z,100058.78
2018-09-03T09:52:36.737Z,100055.30
2018-09-03T09:55:05.542Z,99906.22
2018-09-03T09:57:34.427Z,100055.01
2018-09-03T10:00:03.209Z,100047.15
2018-09-03T10:02:32.065Z,100043.78
2018-09-03T10:05:00.653Z,100047.25
2018-09-03T10:07:29.255Z,100051.91
2018-09-03T10:09:57.942Z,100044.91
2018-09-03T10:12:31.357Z,100040.97
2018-09-03T10:15:01.243Z,100043.31
2018-09-03T10:17:30.661Z,100038.69
2018-09-03T10:19:59.926Z,100035.39
2018-09-03T10:22:28.723Z,100029.42
2018-09-03T10:24:57.331Z,100016.87
2018-09-03T10:27:26.014Z,100019.42
2018-09-03T10:29:54.705Z,100018.78
2018-09-03T10:32:23.767Z,100014.24
2018-09-03T10:34:52.369Z,100012.05
2018-09-03T10:37:21.262Z,100012.38
2018-09-03T10:39:49.876Z,100009.53
2018-09-03T10:42:24.645Z,100006.66
2018-09-03T10:44:53.352Z,100015.58
2018-09-03T10:47:22.062Z,100016.11
2018-09-03T10:55:24.374Z,99994.34
2018-09-03T10:57:52.940Z,99999.95
2018-09-03T11:00:21.563Z,100002.39
2018-09-03T11:02:50.088Z,100006.12
2018-09-03T11:05:18.552Z,99997.73
2018-09-03T11:07:47.121Z,99990.28
2018-09-03T11:10:15.626Z,99908.15
2018-09-03T11:12:44.293Z,99982.57
2018-09-03T11:15:12.971Z,99986.78
2018-09-03T11:17:41.595Z,99983.52
2018-09-03T11:20:13.614Z,99986.62
2018-09-03T11:22:42.168Z,99984.67
2018-09-03T11:25:10.719Z,99980.92
2018-09-03T11:27:39.262Z,99974.84
2018-09-03T11:30:08.509Z,99961.24
2018-09-03T11:32:37.188Z,99965.11
2018-09-03T11:35:05.828Z,99964.29
2018-09-03T11:37:34.312Z,99963.36
2018-09-03T11:40:02.899Z,99953.70
2018-09-03T11:42:31.417Z,99950.22
2018-09-03T11:45:00.059Z,99949.02
2018-09-03T11:47:28.670Z,99950.02
2018-09-03T11:49:57.500Z,99943.17
2018-09-03T11:52:26.028Z,99949.30
2018-09-03T11:54:54.524Z,99953.66
2018-09-03T11:57:22.967Z,99953.95
2018-09-03T11:59:51.481Z,99950.17
2018-09-03T12:02:19.996Z,99949.89
2018-09-03T12:04:48.464Z,99953.62
2018-09-03T12:07:17.260Z,99952.63
2018-09-03T12:09:45.861Z,99959.06
2018-09-03T12:12:14.406Z,99953.64
2018-09-03T12:14:45.218Z,99949.63
2018-09-03T12:17:13.792Z,99954.31
2018-09-03T12:19:42.673Z,99958.50
2018-09-03T12:22:11.243Z,99965.64
2018-09-03T12:24:39.905Z,99968.38
2018-09-03T12:27:09.310Z,99965.45
2018-09-03T12:29:37.795Z,99961.06
2018-09-03T12:32:06.324Z,99956.97
2018-09-03T12:34:34.800Z,99949.77
2018-09-03T12:37:03.482Z,99944.23
2018-09-03T12:39:31.866Z,99945.45
2018-09-03T12:42:00.501Z,99944.73
2018-09-03T12:44:29.007Z,99940.96
2018-09-03T12:46:57.517Z,99938.89
2018-09-03T12:49:26.041Z,99957.63
2018-09-03T12:51:54.544Z,99946.13
2018-09-03T12:54:23.204Z,99943.80
2018-09-03T12:56:51.899Z,99949.79
2018-09-03T12:59:20.366Z,99946.36
2018-09-03T13:01:48.915Z,99947.09
2018-09-03T13:04:17.392Z,99943.31
2018-09-03T13:06:46.016Z,99940.00
2018-09-03T13:09:14.555Z,99940.87
2018-09-03T13:11:43.344Z,99940.09
2018-09-03T13:14:12.010Z,99940.09
2018-09-03T13:16:40.910Z,99942.34
2018-09-03T13:19:09.413Z,99943.77
2018-09-03T13:21:37.960Z,99931.40
2018-09-03T13:24:06.558Z,99939.31
2018-09-03T13:26:35.151Z,99932.22
2018-09-03T13:29:03.661Z,99938.59
2018-09-03T13:31:32.273Z,99935.19
2018-09-03T13:34:01.054Z,99935.19
2018-09-03T13:36:29.744Z,99929.55
2018-09-03T13:38:58.267Z,99925.41
2018-09-03T13:41:26.831Z,99918.70
2018-09-03T13:43:55.629Z,99924.99
2018-09-03T13:46:24.449Z,99917.91
2018-09-03T13:48:53.148Z,99919.01
2018-09-03T13:51:21.689Z,99921.95
2018-09-03T13:53:50.442Z,99922.31
2018-09-03T13:56:19.181Z,99924.63
2018-09-03T13:58:47.910Z,99922.48
2018-09-03T14:01:16.484Z,99922.34
2018-09-03T14:03:44.940Z,99925.81
2018-09-03T14:09:01.799Z,99933.63
2018-09-03T14:11:30.354Z,99935.89
2018-09-03T14:13:58.905Z,99933.91
2018-09-03T14:16:27.609Z,99929.38
2018-09-03T14:18:56.094Z,99930.13
2018-09-03T14:21:24.788Z,99931.63
2018-09-03T14:23:53.831Z,99929.10
2018-09-03T14:26:22.626Z,99933.89
2018-09-03T14:28:51.502Z,99927.84
2018-09-03T14:31:20.770Z,99934.36
2018-09-03T14:33:49.505Z,99929.45
2018-09-03T14:36:18.578Z,99921.27
2018-09-03T14:38:47.242Z,99920.16
2018-09-03T14:41:15.902Z,99922.48
2018-09-03T14:43:44.724Z,99918.81
2018-09-03T14:46:13.378Z,99925.72
2018-09-03T14:48:41.800Z,99921.92
2018-09-03T14:51:10.624Z,99925.90
2018-09-03T14:53:39.412Z,99924.88
2018-09-03T14:56:08.348Z,99922.39
2018-09-03T14:58:37.030Z,99923.87
2018-09-03T15:01:05.607Z,99925.80
2018-09-03T15:03:34.588Z,99925.03
2018-09-03T15:06:03.271Z,99923.81
2018-09-03T15:08:31.837Z,99923.59
2018-09-03T15:11:00.789Z,99916.45
2018-09-03T15:13:29.572Z,99922.56
2018-09-03T15:15:58.956Z,99916.83
2018-09-03T15:18:27.716Z,99915.81
2018-09-03T15:20:56.298Z,99920.05
2018-09-03T15:23:25.163Z,99920.89
2018-09-03T15:25:53.765Z,99926.63
2018-09-03T15:28:22.346Z,99931.52
2018-09-03T15:30:51.075Z,99804.53
2018-09-03T15:33:19.801Z,99929.17
2018-09-03T15:35:48.398Z,99928.86
2018-09-03T15:38:16.995Z,99928.58
2018-09-03T15:40:45.594Z,99926.91
2018-09-03T15:43:14.329Z,99920.86
2018-09-03T15:45:43.053Z,99918.23
2018-09-03T15:48:11.624Z,99915.27
2018-09-03T15:50:40.406Z,99912.91
2018-09-03T15:53:09.065Z,99910.95
2018-09-03T15:55:37.712Z,99699.98
2018-09-03T15:58:06.320Z,99914.99
2018-09-03T16:00:34.985Z,99913.14
2018-09-03T16:03:03.758Z,99920.54
2018-09-03T16:05:32.590Z,99920.77
2018-09-03T16:08:01.260Z,99918.27
2018-09-03T16:10:29.882Z,99917.16
2018-09-03T16:12:58.528Z,99912.77
2018-09-03T16:15:27.061Z,99775.72
2018-09-03T16:17:55.687Z,99919.14
2018-09-03T16:20:24.294Z,99916.78
2018-09-03T16:22:53.190Z,99771.70
2018-09-03T16:25:21.887Z,99912.81
2018-09-03T16:27:50.542Z,99913.09
2018-09-03T16:30:19.140Z,99906.52
2018-09-03T16:32:47.941Z,99914.93
2018-09-03T16:35:16.511Z,99918.75
2018-09-03T16:37:45.082Z,99918.95
2018-09-03T16:40:13.777Z,99920.05
2018-09-03T16:42:42.396Z,99921.31
2018-09-03T16:45:10.998Z,99922.48
2018-09-03T16:47:39.544Z,99920.77
2018-09-03T16:50:08.077Z,99921.36
2018-09-03T16:52:36.597Z,99917.81
2018-09-03T16:55:05.211Z,99920.69
2018-09-03T16:57:33.821Z,99923.91
2018-09-03T17:00:02.425Z,99916.59
2018-09-03T17:02:31.291Z,99913.62
2018-09-03T17:04:59.937Z,99918.10
2018-09-03T17:07:28.621Z,99919.64
2018-09-03T17:09:57.297Z,99915.80
2018-09-03T17:12:25.958Z,99913.30
2018-09-03T17:14:54.473Z,99913.30
2018-09-03T17:17:23.178Z,99909.03
2018-09-03T17:19:51.765Z,99914.17
2018-09-03T17:22:20.326Z,99919.05
2018-09-03T17:24:48.833Z,99919.23
2018-09-03T17:27:17.369Z,99923.44
2018-09-03T17:29:45.940Z,99916.00
2018-09-03T17:32:14.520Z,99918.17
2018-09-03T17:34:43.028Z,99923.27
2018-09-03T17:37:11.497Z,99923.73
2018-09-03T17:39:39.990Z,99919.72
2018-09-03T17:42:08.649Z,99909.59
2018-09-03T17:44:37.255Z,99913.23
2018-09-03T17:47:05.777Z,99907.50
2018-09-03T17:49:34.519Z,99904.03
2018-09-03T17:52:03.021Z,99910.34
2018-09-03T17:54:31.681Z,99912.76
2018-09-03T17:57:00.194Z,99916.27
2018-09-03T17:59:28.735Z,99919.14
2018-09-03T18:01:57.255Z,99913.12
2018-09-03T18:04:25.793Z,99921.23
2018-09-03T18:06:54.320Z,99918.09
2018-09-03T18:09:22.836Z,99914.74
2018-09-03T18:11:51.370Z,99913.87
2018-09-03T18:14:19.928Z,99920.29
2018-09-03T18:16:48.990Z,99922.28
2018-09-03T18:19:17.595Z,99862.33
2018-09-03T18:21:46.192Z,99923.42
2018-09-03T18:24:14.701Z,99915.56
2018-09-03T18:26:43.276Z,99919.39
2018-09-03T18:29:12.017Z,99914.62
2018-09-03T18:31:40.622Z,99907.03
2018-09-03T18:34:09.089Z,99910.16
2018-09-03T18:36:37.652Z,99907.39
2018-09-03T18:39:06.905Z,99907.86
2018-09-03T18:41:35.443Z,99914.12
2018-09-03T18:44:04.055Z,99913.33
2018-09-03T18:46:32.688Z,99918.10
2018-09-03T18:49:01.711Z,99923.60
2018-09-03T18:51:30.276Z,99922.76
2018-09-03T18:53:58.829Z,99918.26
2018-09-03T18:56:27.489Z,99928.48
2018-09-03T18:58:56.048Z,99928.56
2018-09-03T19:01:24.733Z,99931.34
2018-09-03T19:03:53.318Z,99925.13
2018-09-03T19:06:22.026Z,99916.73
2018-09-03T19:08:50.699Z,99909.98
2018-09-03T19:11:19.269Z,99910.82
2018-09-03T19:13:47.851Z,99922.45
2018-09-03T19:16:16.402Z,99911.58
2018-09-03T19:18:45.121Z,99915.47
2018-09-03T19:21:13.792Z,99907.88
2018-09-03T19:23:42.339Z,99900.63
2018-09-03T19:26:10.872Z,99898.69
2018-09-03T19:28:39.540Z,99894.07
2018-09-03T19:31:08.113Z,99895.28
2018-09-03T19:33:36.729Z,99907.94
2018-09-03T19:36:05.311Z,99906.94
2018-09-03T19:38:33.857Z,99914.17
2018-09-03T19:41:02.427Z,99909.41
2018-09-03T19:43:31.060Z,99908.45
2018-09-03T19:45:59.626Z,99903.96
2018-09-03T19:48:28.311Z,99910.06
2018-09-03T19:50:56.881Z,99911.33
2018-09-03T19:53:25.518Z,99910.06
2018-09-03T19:55:54.079Z,99918.48
2018-09-03T19:58:22.746Z,99915.58
2018-09-03T20:00:51.331Z,99922.05
2018-09-03T20:03:19.999Z,99920.41
2018-09-03T20:05:48.668Z,99914.69
2018-09-03T20:08:17.590Z,99914.77
2018-09-03T20:10:46.263Z,99911.71
2018-09-03T20:13:15.344Z,99918.77
2018-09-03T20:15:43.956Z,99912.97
2018-09-03T20:18:15.049Z,99907.14
2018-09-03T20:20:43.860Z,99906.58
2018-09-03T20:23:12.551Z,99907.53
2018-09-03T20:25:41.136Z,99910.69
2018-09-03T20:28:09.901Z,99916.02
2018-09-03T20:30:38.573Z,99917.43
2018-09-03T20:33:07.078Z,99914.38
2018-09-03T20:35:35.803Z,99916.35
2018-09-03T20:38:04.454Z,99909.63
2018-09-03T20:40:33.052Z,99911.14
2018-09-03T20:43:01.865Z,99909.50
2018-09-03T20:45:30.295Z,99911.32
2018-09-03T20:47:59.074Z,99912.27
2018-09-03T20:50:27.729Z,99907.47
2018-09-03T20:52:56.341Z,99914.13
2018-09-03T20:55:31.007Z,99914.23
2018-09-03T20:57:59.656Z,99918.23
2018-09-03T21:00:28.368Z,99912.03
2018-09-03T21:02:58.128Z,99911.82
2018-09-03T21:05:26.783Z,99911.89
2018-09-03T21:07:55.418Z,99913.80
2018-09-03T21:10:24.005Z,99914.25
2018-09-03T21:12:52.512Z,99915.58
2018-09-03T21:15:21.119Z,99919.30
2018-09-03T21:17:49.729Z,99922.04
2018-09-03T21:20:18.323Z,99917.73
2018-09-03T21:22:46.910Z,99913.48
2018-09-03T21:25:15.791Z,99920.99
2018-09-03T21:27:44.405Z,99927.27
2018-09-03T21:30:13.089Z,99921.09
2018-09-03T21:32:42.017Z,99922.05
2018-09-03T21:35:10.716Z,99920.61
2018-09-03T21:37:39.346Z,99797.92
2018-09-03T21:40:08.045Z,99915.28
2018-09-03T21:42:36.660Z,99913.87
2018-09-03T21:45:05.303Z,99908.16
2018-09-03T21:47:34.081Z,99907.63
2018-09-03T21:50:02.686Z,99910.71
2018-09-03T21:52:31.395Z,99909.48
2018-09-03T21:54:59.956Z,99912.30
2018-09-03T21:57:28.546Z,99914.75
2018-09-03T21:59:57.115Z,99918.44
2018-09-03T22:02:25.672Z,99919.06
2018-09-03T22:04:54.304Z,99918.68
2018-09-03T22:07:22.951Z,99920.19
2018-09-03T22:09:51.524Z,99913.59
2018-09-03T22:12:20.075Z,99913.27
2018-09-03T22:14:48.589Z,99915.17
2018-09-03T22:17:17.221Z,99910.95
2018-09-03T22:19:45.861Z,99913.93
2018-09-03T22:22:14.432Z,99922.16
2018-09-03T22:24:43.033Z,99918.58
2018-09-03T22:27:11.678Z,99921.48
2018-09-03T22:29:40.289Z,99922.66
2018-09-03T22:32:09.002Z,99915.45
2018-09-03T22:34:37.645Z,99921.41
2018-09-03T22:37:06.253Z,99918.09
2018-09-03T22:39:34.775Z,99916.13
2018-09-03T22:42:03.399Z,99918.63
2018-09-03T22:44:32.145Z,99919.77
2018-09-03T22:47:00.862Z,99921.43
2018-09-03T22:49:29.470Z,99918.50
2018-09-03T22:51:58.019Z,99917.95
2018-09-03T22:54:26.654Z,99917.56
2018-09-03T22:56:55.321Z,99911.63
2018-09-03T22:59:23.925Z,99913.08
2018-09-03T23:01:52.490Z,99913.63
2018-09-03T23:04:21.079Z,99912.46
2018-09-03T23:06:49.628Z,99918.33
2018-09-03T23:09:18.157Z,99918.33
2018-09-03T23:11:46.633Z,99919.34
2018-09-03T23:14:15.157Z,99916.73
2018-09-03T23:16:43.654Z,99918.62
2018-09-03T23:19:12.192Z,99912.42
2018-09-03T23:21:40.722Z,99915.56
2018-09-03T23:24:09.262Z,99912.91
2018-09-03T23:26:37.816Z,99917.29
2018-09-03T23:29:06.350Z,99914.23
2018-09-03T23:31:34.897Z,99917.45
2018-09-03T23:34:03.557Z,99912.58
2018-09-03T23:36:32.095Z,99908.27
2018-09-03T23:39:00.820Z,99901.28
2018-09-03T23:41:29.410Z,99901.11
2018-09-03T23:43:57.882Z,99900.22
2018-09-03T23:46:26.501Z,99902.16
2018-09-03T23:48:55.004Z,99902.83
2018-09-03T23:51:23.560Z,99901.66
2018-09-03T23:53:52.142Z,99904.05
2018-09-03T23:56:20.737Z,99903.66
2018-09-03T23:58:49.313Z,99908.36
